createdAt,value
2022-08-05T00:00:20.883Z,21.52
2022-08-05T00:01:27.410Z,21.53
2022-08-05T00:02:20.935Z,21.49
2022-08-05T00:03:19.876Z,21.49
2022-08-05T00:04:19.838Z,21.38
2022-08-05T00:06:01.666Z,21.44
2022-08-05T00:06:32.205Z,21.35
2022-08-05T00:07:27.227Z,21.34
2022-08-05T00:08:34.269Z,21.40
2022-08-05T00:09:20.785Z,21.32
2022-08-05T00:10:19.772Z,21.24
2022-08-05T00:11:28.088Z,21.28
2022-08-05T00:12:20.772Z,21.24
2022-08-05T00:13:19.932Z,21.27
2022-08-05T00:14:19.746Z,21.27
2022-08-05T00:15:55.227Z,21.24
2022-08-05T00:16:35.995Z,21.35
2022-08-05T00:17:20.800Z,21.19
2022-08-05T00:18:21.520Z,21.27
2022-08-05T00:19:19.698Z,21.29
2022-08-05T00:20:20.187Z,21.25
2022-08-05T00:21:19.673Z,21.25
2022-08-05T00:22:19.634Z,21.27
2022-08-05T00:23:44.607Z,21.14
2022-08-05T00:24:24.558Z,21.22
2022-08-05T00:25:19.630Z,21.10
2022-08-05T00:26:19.594Z,21.14
2022-08-05T00:27:19.585Z,21.17
2022-08-05T00:28:21.175Z,21.12
2022-08-05T00:29:22.407Z,21.16
2022-08-05T00:30:20.546Z,21.19
2022-08-05T00:31:53.674Z,21.13
2022-08-05T00:32:20.518Z,21.13
2022-08-05T00:34:54.358Z,21.07
2022-08-05T00:34:55.197Z,21.14
2022-08-05T00:35:20.498Z,21.07
2022-08-05T00:37:13.108Z,21.14
2022-08-05T00:37:20.463Z,21.12
2022-08-05T00:38:19.453Z,21.10
2022-08-05T00:39:20.455Z,21.13
2022-08-05T00:40:28.264Z,21.12
2022-08-05T00:41:20.445Z,21.06
2022-08-05T00:42:31.916Z,21.04
2022-08-05T00:43:20.399Z,20.95
2022-08-05T00:44:20.843Z,20.91
2022-08-05T00:45:28.030Z,20.97
2022-08-05T00:46:20.393Z,20.88
2022-08-05T00:47:20.359Z,20.87
2022-08-05T00:48:27.438Z,20.85
2022-08-05T00:49:20.333Z,20.88
2022-08-05T00:50:21.013Z,20.76
2022-08-05T00:51:51.863Z,20.85
2022-08-05T00:52:28.754Z,20.84
2022-08-05T00:54:00.153Z,20.77
2022-08-05T00:54:20.271Z,20.84
2022-08-05T00:55:19.294Z,20.76
2022-08-05T00:56:22.682Z,20.80
2022-08-05T00:57:21.239Z,20.76
2022-08-05T00:58:19.397Z,20.74
2022-08-05T00:59:19.224Z,20.73
2022-08-05T01:00:19.902Z,20.67
2022-08-05T01:01:24.888Z,20.69
2022-08-05T01:02:20.210Z,20.67
2022-08-05T01:03:22.713Z,20.70
2022-08-05T01:04:20.386Z,20.70
2022-08-05T01:05:20.156Z,20.69
2022-08-05T01:06:19.161Z,20.72
2022-08-05T01:07:19.133Z,20.69
2022-08-05T01:08:41.465Z,20.70
2022-08-05T01:09:20.405Z,20.70
2022-08-05T01:10:19.098Z,20.69
2022-08-05T01:11:22.248Z,20.69
2022-08-05T01:12:19.214Z,20.70
2022-08-05T01:13:19.486Z,20.72
2022-08-05T01:14:28.369Z,20.72
2022-08-05T01:15:36.132Z,20.69
2022-08-05T01:16:20.888Z,20.66
2022-08-05T01:17:19.016Z,20.70
2022-08-05T01:18:19.033Z,20.73
2022-08-05T01:19:18.999Z,20.73
2022-08-05T01:20:18.992Z,20.70
2022-08-05T01:21:22.881Z,20.72
2022-08-05T01:22:24.262Z,20.70
2022-08-05T01:23:23.284Z,20.80
2022-08-05T01:24:18.945Z,20.70
2022-08-05T01:25:18.937Z,20.73
2022-08-05T01:26:18.921Z,20.74
2022-08-05T01:27:19.505Z,20.76
2022-08-05T01:28:18.924Z,20.73
2022-08-05T01:29:18.887Z,20.76
2022-08-05T01:30:19.137Z,20.73
2022-08-05T01:31:19.861Z,20.72
2022-08-05T01:32:18.931Z,20.67
2022-08-05T01:33:19.712Z,20.70
2022-08-05T01:34:18.839Z,20.72
2022-08-05T01:35:51.215Z,20.72
2022-08-05T01:36:21.070Z,20.73
2022-08-05T01:37:24.987Z,20.73
2022-08-05T01:38:26.855Z,20.77
2022-08-05T01:39:46.685Z,20.77
2022-08-05T01:40:19.764Z,20.72
2022-08-05T01:41:21.622Z,20.84
2022-08-05T01:42:18.745Z,20.72
2022-08-05T01:43:21.911Z,20.73
2022-08-05T01:44:18.745Z,20.80
2022-08-05T01:45:18.710Z,20.72
2022-08-05T01:46:42.887Z,20.72
2022-08-05T01:47:19.685Z,20.67
2022-08-05T01:48:18.680Z,20.57
2022-08-05T01:49:24.273Z,20.54
2022-08-05T01:50:19.654Z,20.55
2022-08-05T01:51:19.669Z,20.50
2022-08-05T01:52:19.122Z,20.51
2022-08-05T01:53:54.657Z,20.42
2022-08-05T01:54:19.629Z,20.38
2022-08-05T01:55:19.591Z,20.33
2022-08-05T01:58:12.358Z,20.28
2022-08-05T01:58:13.648Z,20.36
2022-08-05T01:58:29.399Z,20.28
2022-08-05T01:59:19.572Z,20.21
2022-08-05T02:00:18.543Z,20.24
2022-08-05T02:01:25.328Z,20.26
2022-08-05T02:02:19.594Z,20.20
2022-08-05T02:03:29.135Z,20.11
2022-08-05T02:04:19.521Z,20.14
2022-08-05T02:05:18.483Z,20.02
2022-08-05T02:06:37.755Z,20.13
2022-08-05T02:07:21.848Z,20.03
2022-08-05T02:08:29.639Z,20.11
2022-08-05T02:09:20.581Z,20.01
2022-08-05T02:10:18.454Z,20.06
2022-08-05T02:11:23.715Z,20.11
2022-08-05T02:12:18.411Z,20.01
2022-08-05T02:13:18.395Z,20.03
2022-08-05T02:14:18.416Z,19.99
2022-08-05T02:15:19.763Z,20.06
2022-08-05T02:16:18.357Z,20.05
2022-08-05T02:18:28.423Z,20.02
2022-08-05T02:18:33.210Z,20.01
2022-08-05T02:19:19.323Z,19.99
2022-08-05T02:20:20.721Z,19.99
2022-08-05T02:21:18.303Z,19.94
2022-08-05T02:22:26.482Z,19.91
2022-08-05T02:23:19.284Z,19.94
2022-08-05T02:24:18.291Z,19.88
2022-08-05T02:25:18.281Z,19.92
2022-08-05T02:26:18.255Z,19.96
2022-08-05T02:27:18.242Z,19.99
2022-08-05T02:28:29.297Z,19.96
2022-08-05T02:29:21.580Z,19.95
2022-08-05T02:30:19.225Z,20.01
2022-08-05T02:31:21.039Z,19.98
2022-08-05T02:32:23.954Z,20.01
2022-08-05T02:33:24.331Z,20.01
2022-08-05T02:34:19.180Z,19.96
2022-08-05T02:35:19.202Z,20.01
2022-08-05T02:36:19.155Z,19.99
2022-08-05T02:37:18.126Z,20.11
2022-08-05T02:38:19.143Z,20.03
2022-08-05T02:39:18.183Z,20.11
2022-08-05T02:40:18.091Z,20.10
2022-08-05T02:41:18.080Z,20.03
2022-08-05T02:42:25.913Z,20.08
2022-08-05T02:43:19.055Z,20.06
2022-08-05T02:44:18.051Z,20.11
2022-08-05T02:45:18.061Z,20.02
2022-08-05T02:46:18.032Z,20.06
2022-08-05T02:47:19.032Z,20.16
2022-08-05T02:48:17.999Z,20.01
2022-08-05T02:49:17.986Z,20.02
2022-08-05T02:50:18.271Z,19.92
2022-08-05T02:51:17.969Z,19.88
2022-08-05T02:52:30.036Z,19.91
2022-08-05T02:53:19.682Z,19.96
2022-08-05T02:54:35.702Z,19.95
2022-08-05T02:55:51.989Z,19.99
2022-08-05T02:56:19.071Z,19.96
2022-08-05T02:58:12.160Z,19.98
2022-08-05T02:58:20.464Z,19.95
2022-08-05T02:59:17.876Z,19.96
2022-08-05T03:00:17.898Z,19.91
2022-08-05T03:01:19.474Z,19.88
2022-08-05T03:02:17.848Z,19.88
2022-08-05T03:03:17.854Z,19.80
2022-08-05T03:04:17.841Z,19.80
2022-08-05T03:05:21.843Z,19.69
2022-08-05T03:06:55.098Z,19.76
2022-08-05T03:07:59.373Z,19.80
2022-08-05T03:08:26.833Z,19.78
2022-08-05T03:09:36.086Z,19.80
2022-08-05T03:10:21.787Z,19.88
2022-08-05T03:11:57.850Z,19.86
2022-08-05T03:12:18.730Z,19.87
2022-08-05T03:13:17.721Z,19.88
2022-08-05T03:14:17.732Z,19.88
2022-08-05T03:15:17.698Z,19.91
2022-08-05T03:16:17.690Z,19.91
2022-08-05T03:17:17.679Z,19.80
2022-08-05T03:18:17.683Z,19.77
2022-08-05T03:19:33.111Z,19.78
2022-08-05T03:20:18.672Z,19.73
2022-08-05T03:21:17.658Z,19.73
2022-08-05T03:22:31.816Z,19.76
2022-08-05T03:23:18.618Z,19.71
2022-08-05T03:24:18.592Z,19.68
2022-08-05T03:25:33.643Z,19.66
2022-08-05T03:26:32.113Z,19.68
2022-08-05T03:27:18.563Z,19.73
2022-08-05T03:28:18.765Z,19.65
2022-08-05T03:29:17.543Z,19.51
2022-08-05T03:30:17.527Z,19.48
2022-08-05T03:31:18.249Z,19.51
2022-08-05T03:32:18.503Z,19.47
2022-08-05T03:33:17.520Z,19.41
2022-08-05T03:34:17.486Z,19.37
2022-08-05T03:35:17.476Z,19.36
2022-08-05T03:36:17.459Z,19.37
2022-08-05T03:37:18.480Z,19.39
2022-08-05T03:38:17.440Z,19.39
2022-08-05T03:39:20.116Z,19.37
2022-08-05T03:40:31.440Z,19.32
2022-08-05T03:41:18.409Z,19.21
2022-08-05T03:42:18.392Z,19.25
2022-08-05T03:43:59.131Z,19.31
2022-08-05T03:44:19.826Z,19.31
2022-08-05T03:45:21.912Z,19.25
2022-08-05T03:46:18.349Z,19.28
2022-08-05T03:47:17.365Z,19.25
2022-08-05T03:48:22.001Z,19.21
2022-08-05T03:49:18.346Z,19.23
2022-08-05T03:50:17.329Z,19.14
2022-08-05T03:52:38.009Z,19.19
2022-08-05T03:52:49.296Z,19.22
2022-08-05T03:55:34.249Z,19.13
2022-08-05T03:55:53.957Z,19.13
2022-08-05T03:56:04.121Z,19.08
2022-08-05T03:56:30.501Z,19.07
2022-08-05T03:57:18.240Z,19.02
2022-08-05T03:58:17.213Z,19.06
2022-08-05T03:59:20.351Z,19.08
2022-08-05T04:00:17.211Z,19.08
2022-08-05T04:01:17.250Z,19.06
2022-08-05T04:02:17.573Z,19.04
2022-08-05T04:03:28.356Z,19.06
2022-08-05T04:04:21.252Z,19.08
2022-08-05T04:05:17.138Z,19.02
2022-08-05T04:06:17.185Z,19.04
2022-08-05T04:07:17.112Z,19.00
2022-08-05T04:08:34.711Z,18.98
2022-08-05T04:09:20.401Z,19.00
2022-08-05T04:10:18.099Z,18.94
2022-08-05T04:11:17.070Z,18.94
2022-08-05T04:12:24.753Z,18.80
2022-08-05T04:13:18.062Z,18.84
2022-08-05T04:14:18.148Z,18.81
2022-08-05T04:15:17.022Z,18.80
2022-08-05T04:16:24.066Z,18.81
2022-08-05T04:17:17.996Z,18.80
2022-08-05T04:18:20.544Z,18.80
2022-08-05T04:19:17.973Z,18.84
2022-08-05T04:20:17.960Z,18.70
2022-08-05T04:22:05.067Z,18.75
2022-08-05T04:22:21.291Z,18.78
2022-08-05T04:23:16.950Z,18.76
2022-08-05T04:24:19.407Z,18.91
2022-08-05T04:25:17.131Z,18.87
2022-08-05T04:26:17.432Z,18.82
2022-08-05T04:27:16.932Z,18.95
2022-08-05T04:28:17.274Z,19.00
2022-08-05T04:29:16.874Z,18.94
2022-08-05T04:30:16.871Z,18.95
2022-08-05T04:31:16.844Z,18.95
2022-08-05T04:32:20.149Z,19.07
2022-08-05T04:33:17.816Z,19.10
2022-08-05T04:34:33.667Z,19.07
2022-08-05T04:35:19.606Z,19.06
2022-08-05T04:36:45.790Z,19.08
2022-08-05T04:37:17.795Z,19.08
2022-08-05T04:38:16.760Z,19.10
2022-08-05T04:39:16.819Z,19.02
2022-08-05T04:40:19.307Z,19.00
2022-08-05T04:41:16.723Z,19.02
2022-08-05T04:42:16.718Z,18.95
2022-08-05T04:43:16.925Z,18.92
2022-08-05T04:44:21.413Z,18.87
2022-08-05T04:45:31.349Z,18.98
2022-08-05T04:46:28.009Z,18.95
2022-08-05T04:47:20.342Z,18.94
2022-08-05T04:48:27.718Z,18.95
2022-08-05T04:49:17.666Z,18.95
2022-08-05T04:50:34.397Z,18.99
2022-08-05T04:51:17.634Z,18.98
2022-08-05T04:52:16.610Z,19.02
2022-08-05T04:53:16.588Z,19.10
2022-08-05T04:54:16.579Z,19.18
2022-08-05T04:55:16.570Z,19.13
2022-08-05T04:56:34.467Z,19.13
2022-08-05T04:57:17.547Z,19.11
2022-08-05T04:58:16.539Z,19.22
2022-08-05T04:59:22.073Z,19.28
2022-08-05T05:00:17.518Z,19.26
2022-08-05T05:02:06.090Z,19.22
2022-08-05T05:02:37.136Z,19.31
2022-08-05T05:03:20.265Z,19.33
2022-08-05T05:04:16.468Z,19.25
2022-08-05T05:05:28.445Z,19.28
2022-08-05T05:06:39.594Z,19.31
2022-08-05T05:07:17.434Z,19.23
2022-08-05T05:08:30.285Z,19.28
2022-08-05T05:09:18.323Z,19.25
2022-08-05T05:10:16.403Z,19.21
2022-08-05T05:11:16.391Z,19.22
2022-08-05T05:12:16.402Z,19.19
2022-08-05T05:13:16.369Z,19.19
2022-08-05T05:14:16.460Z,19.21
2022-08-05T05:15:17.534Z,19.26
2022-08-05T05:16:17.332Z,19.21
2022-08-05T05:17:22.765Z,19.32
2022-08-05T05:18:31.375Z,19.22
2022-08-05T05:19:19.281Z,19.25
2022-08-05T05:20:17.284Z,19.22
2022-08-05T05:21:16.300Z,19.26
2022-08-05T05:22:24.320Z,19.31
2022-08-05T05:23:19.983Z,19.28
2022-08-05T05:24:17.703Z,19.23
2022-08-05T05:25:17.508Z,19.28
2022-08-05T05:26:16.253Z,19.33
2022-08-05T05:27:16.308Z,19.37
2022-08-05T05:28:16.228Z,19.36
2022-08-05T05:29:16.193Z,19.33
2022-08-05T05:30:29.113Z,19.46
2022-08-05T05:31:18.549Z,19.44
2022-08-05T05:32:16.172Z,19.39
2022-08-05T05:33:17.433Z,19.44
2022-08-05T05:34:18.139Z,19.56
2022-08-05T05:35:19.871Z,19.62
2022-08-05T05:36:16.110Z,19.54
2022-08-05T05:37:16.167Z,19.47
2022-08-05T05:38:22.560Z,19.62
2022-08-05T05:39:19.080Z,19.54
2022-08-05T05:40:16.060Z,19.55
2022-08-05T05:41:16.296Z,19.50
2022-08-05T05:42:16.045Z,19.54
2022-08-05T05:43:16.056Z,19.51
2022-08-05T05:44:36.716Z,19.51
2022-08-05T05:45:17.007Z,19.55
2022-08-05T05:46:18.856Z,19.56
2022-08-05T05:47:21.525Z,19.50
2022-08-05T05:48:16.999Z,19.59
2022-08-05T05:49:23.093Z,19.61
2022-08-05T05:50:19.791Z,19.50
2022-08-05T05:51:16.183Z,19.47
2022-08-05T05:52:26.467Z,19.54
2022-08-05T05:53:20.896Z,19.56
2022-08-05T05:54:16.926Z,19.63
2022-08-05T05:55:15.896Z,19.68
2022-08-05T05:56:15.882Z,19.66
2022-08-05T05:57:19.052Z,19.74
2022-08-05T05:58:15.887Z,19.73
2022-08-05T05:59:15.849Z,19.86
2022-08-05T06:00:15.839Z,19.84
2022-08-05T06:01:15.828Z,19.80
2022-08-05T06:02:15.818Z,19.88
2022-08-05T06:03:39.623Z,19.83
2022-08-05T06:04:16.846Z,19.80
2022-08-05T06:05:15.782Z,19.74
2022-08-05T06:06:15.770Z,19.76
2022-08-05T06:07:15.792Z,19.73
2022-08-05T06:08:15.746Z,19.81
2022-08-05T06:09:24.757Z,19.87
2022-08-05T06:10:16.720Z,19.96
2022-08-05T06:11:15.716Z,19.96
2022-08-05T06:12:15.703Z,20.02
2022-08-05T06:13:15.698Z,19.98
2022-08-05T06:14:15.702Z,20.01
2022-08-05T06:15:23.639Z,19.99
2022-08-05T06:16:29.591Z,20.11
2022-08-05T06:17:24.337Z,19.98
2022-08-05T06:18:16.658Z,20.06
2022-08-05T06:19:15.626Z,19.99
2022-08-05T06:20:18.885Z,20.06
2022-08-05T06:21:18.721Z,20.02
2022-08-05T06:22:15.619Z,20.10
2022-08-05T06:23:15.583Z,20.10
2022-08-05T06:24:15.567Z,19.99
2022-08-05T06:25:25.259Z,20.06
2022-08-05T06:26:20.809Z,19.98
2022-08-05T06:28:09.078Z,19.95
2022-08-05T06:28:20.895Z,19.96
2022-08-05T06:29:25.422Z,19.98
2022-08-05T06:30:20.153Z,20.01
2022-08-05T06:31:18.092Z,19.96
2022-08-05T06:32:26.245Z,19.96
2022-08-05T06:33:19.464Z,19.95
2022-08-05T06:34:16.457Z,19.91
2022-08-05T06:36:02.955Z,19.92
2022-08-05T06:36:16.427Z,19.95
2022-08-05T06:37:15.418Z,19.92
2022-08-05T06:38:15.440Z,19.76
2022-08-05T06:39:15.462Z,19.92
2022-08-05T06:40:18.050Z,19.80
2022-08-05T06:41:16.383Z,19.74
2022-08-05T06:42:15.369Z,19.71
2022-08-05T06:43:59.228Z,19.77
2022-08-05T06:44:16.345Z,19.81
2022-08-05T06:45:20.729Z,19.94
2022-08-05T06:46:16.364Z,19.99
2022-08-05T06:47:29.939Z,19.96
2022-08-05T06:48:53.538Z,19.91
2022-08-05T06:49:16.312Z,19.78
2022-08-05T06:50:17.362Z,19.94
2022-08-05T06:51:23.939Z,19.83
2022-08-05T06:52:37.903Z,19.96
2022-08-05T06:53:22.646Z,19.92
2022-08-05T06:54:18.998Z,19.78
2022-08-05T06:55:15.244Z,19.73
2022-08-05T06:56:26.448Z,19.81
2022-08-05T06:58:02.699Z,19.81
2022-08-05T06:58:29.518Z,19.91
2022-08-05T06:59:16.176Z,19.96
2022-08-05T07:00:15.183Z,20.02
2022-08-05T07:01:16.226Z,19.96
2022-08-05T07:02:16.140Z,20.14
2022-08-05T07:03:16.675Z,20.13
2022-08-05T07:04:15.119Z,20.21
2022-08-05T07:05:18.886Z,20.26
2022-08-05T07:06:15.393Z,20.38
2022-08-05T07:07:15.287Z,20.32
2022-08-05T07:08:16.072Z,20.51
2022-08-05T07:09:15.067Z,20.62
2022-08-05T07:10:16.390Z,20.80
2022-08-05T07:11:15.773Z,20.95
2022-08-05T07:12:15.031Z,21.06
2022-08-05T07:13:15.024Z,21.27
2022-08-05T07:14:19.985Z,21.52
2022-08-05T07:15:34.129Z,21.58
2022-08-05T07:17:59.043Z,21.65
2022-08-05T07:18:00.013Z,21.77
2022-08-05T07:18:20.261Z,21.77
2022-08-05T07:19:44.382Z,21.98
2022-08-05T07:20:33.004Z,21.91
2022-08-05T07:21:15.926Z,21.82
2022-08-05T07:22:15.941Z,21.77
2022-08-05T07:23:26.111Z,21.69
2022-08-05T07:24:15.896Z,21.77
2022-08-05T07:25:24.079Z,21.62
2022-08-05T07:26:20.939Z,21.68
2022-08-05T07:27:15.858Z,21.74
2022-08-05T07:28:17.285Z,21.72
2022-08-05T07:29:15.105Z,21.79
2022-08-05T07:30:24.297Z,21.86
2022-08-05T07:31:15.827Z,21.92
2022-08-05T07:33:36.745Z,22.05
2022-08-05T07:34:28.775Z,22.06
2022-08-05T07:36:04.908Z,22.06
2022-08-05T07:36:27.070Z,22.14
2022-08-05T07:37:29.058Z,22.15
2022-08-05T07:38:34.341Z,22.06
2022-08-05T07:40:26.304Z,22.14
2022-08-05T07:40:32.260Z,22.07
2022-08-05T07:42:07.943Z,21.91
2022-08-05T07:42:33.843Z,21.98
2022-08-05T07:43:26.957Z,21.86
2022-08-05T07:44:25.925Z,21.79
2022-08-05T07:45:44.070Z,21.74
2022-08-05T07:46:26.952Z,21.88
2022-08-05T07:47:25.960Z,21.77
2022-08-05T07:49:01.586Z,21.84
2022-08-05T07:49:26.878Z,21.83
2022-08-05T07:50:32.561Z,21.94
2022-08-05T07:51:37.174Z,22.07
2022-08-05T07:52:26.839Z,22.15
2022-08-05T07:53:26.858Z,22.54
2022-08-05T07:54:31.130Z,22.80
2022-08-05T07:56:04.648Z,22.88
2022-08-05T07:57:00.612Z,22.73
2022-08-05T07:57:55.252Z,22.72
2022-08-05T07:58:54.631Z,22.80
2022-08-05T07:59:31.365Z,22.72
2022-08-05T08:00:26.752Z,22.82
2022-08-05T08:01:25.810Z,22.86
2022-08-05T08:02:26.593Z,22.91
2022-08-05T08:03:25.743Z,22.95
2022-08-05T08:04:37.894Z,22.90
2022-08-05T08:05:26.698Z,22.85
2022-08-05T08:06:28.257Z,23.02
2022-08-05T08:07:28.518Z,23.13
2022-08-05T08:08:26.103Z,23.31
2022-08-05T08:09:25.655Z,23.46
2022-08-05T08:10:25.641Z,23.50
2022-08-05T08:11:27.459Z,23.58
2022-08-05T08:12:38.050Z,23.55
2022-08-05T08:13:29.227Z,23.47
2022-08-05T08:14:25.597Z,23.33
2022-08-05T08:16:34.007Z,23.32
2022-08-05T08:16:35.426Z,23.19
2022-08-05T08:17:27.787Z,23.16
2022-08-05T08:18:25.555Z,22.97
2022-08-05T08:20:43.278Z,22.88
2022-08-05T08:21:00.546Z,22.82
2022-08-05T08:21:26.519Z,22.85
2022-08-05T08:22:26.919Z,22.70
2022-08-05T08:24:02.093Z,22.82
2022-08-05T08:24:34.747Z,22.80
2022-08-05T08:25:59.060Z,22.76
2022-08-05T08:26:26.716Z,22.88
2022-08-05T08:27:35.722Z,22.85
2022-08-05T08:28:36.334Z,22.85
2022-08-05T08:30:04.159Z,22.90
2022-08-05T08:30:29.513Z,22.85
2022-08-05T08:31:26.944Z,22.90
2022-08-05T08:32:27.756Z,22.91
2022-08-05T08:33:25.413Z,22.92
2022-08-05T08:34:30.790Z,23.00
2022-08-05T08:35:26.526Z,23.00
2022-08-05T08:36:38.582Z,22.95
2022-08-05T08:37:27.922Z,22.90
2022-08-05T08:38:35.436Z,22.95
2022-08-05T08:39:26.360Z,23.25
2022-08-05T08:40:25.309Z,23.17
2022-08-05T08:41:26.163Z,23.28
2022-08-05T08:42:33.883Z,23.36
2022-08-05T08:45:17.714Z,23.36
2022-08-05T08:45:25.240Z,23.33
2022-08-05T08:45:29.780Z,23.50
2022-08-05T08:46:25.247Z,23.55
2022-08-05T08:48:06.656Z,23.57
2022-08-05T08:49:03.554Z,23.69
2022-08-05T08:50:14.290Z,23.66
2022-08-05T08:50:51.941Z,23.73
2022-08-05T08:52:03.267Z,23.83
2022-08-05T08:52:26.549Z,23.84
2022-08-05T08:53:25.192Z,23.98
2022-08-05T08:54:27.345Z,24.18
2022-08-05T08:56:01.791Z,24.31
2022-08-05T08:56:27.094Z,24.39
2022-08-05T08:57:25.146Z,24.77
2022-08-05T08:58:37.134Z,25.10
2022-08-05T08:59:27.574Z,25.27
2022-08-05T09:00:26.236Z,25.52
2022-08-05T09:01:25.119Z,25.51
2022-08-05T09:02:26.921Z,25.65
2022-08-05T09:03:25.061Z,25.45
2022-08-05T09:04:30.327Z,25.46
2022-08-05T09:05:38.432Z,25.51
2022-08-05T09:06:28.048Z,25.46
2022-08-05T09:07:28.836Z,25.47
2022-08-05T09:08:26.570Z,25.38
2022-08-05T09:09:24.992Z,25.27
2022-08-05T09:10:27.215Z,25.20
2022-08-05T09:11:51.025Z,25.21
2022-08-05T09:12:27.299Z,25.18
2022-08-05T09:13:24.971Z,25.06
2022-08-05T09:14:57.764Z,25.02
2022-08-05T09:15:25.927Z,25.30
2022-08-05T09:16:26.934Z,25.46
2022-08-05T09:17:42.347Z,25.33
2022-08-05T09:18:25.896Z,25.57
2022-08-05T09:19:28.118Z,25.76
2022-08-05T09:20:36.582Z,25.87
2022-08-05T09:22:22.621Z,25.92
2022-08-05T09:22:31.987Z,25.83
2022-08-05T09:23:27.169Z,25.90
2022-08-05T09:24:24.833Z,25.80
2022-08-05T09:26:01.914Z,25.57
2022-08-05T09:26:25.808Z,25.24
2022-08-05T09:28:04.107Z,25.24
2022-08-05T09:28:32.257Z,25.52
2022-08-05T09:29:30.984Z,25.80
2022-08-05T09:30:25.764Z,25.60
2022-08-05T09:32:40.017Z,25.51
2022-08-05T09:32:41.270Z,26.06
2022-08-05T09:33:34.960Z,26.28
2022-08-05T09:34:26.129Z,26.25
2022-08-05T09:35:27.090Z,26.13
2022-08-05T09:36:27.843Z,26.06
2022-08-05T09:38:16.536Z,26.05
2022-08-05T09:38:27.365Z,25.98
2022-08-05T09:39:39.368Z,26.09
2022-08-05T09:40:25.721Z,25.92
2022-08-05T09:41:24.647Z,25.94
2022-08-05T09:42:28.516Z,25.73
2022-08-05T09:43:24.665Z,25.70
2022-08-05T09:44:24.620Z,25.64
2022-08-05T09:46:06.299Z,25.77
2022-08-05T09:46:27.575Z,25.88
2022-08-05T09:47:24.582Z,26.10
2022-08-05T09:48:24.572Z,26.33
2022-08-05T09:49:40.341Z,26.52
2022-08-05T09:50:37.629Z,26.62
2022-08-05T09:51:25.541Z,26.55
2022-08-05T09:52:25.564Z,26.55
2022-08-05T09:53:25.953Z,26.60
2022-08-05T09:54:29.275Z,26.70
2022-08-05T09:55:56.369Z,26.95
2022-08-05T09:56:25.484Z,27.06
2022-08-05T09:57:24.477Z,27.04
2022-08-05T09:58:24.487Z,26.76
2022-08-05T09:59:24.456Z,26.44
2022-08-05T10:00:24.553Z,26.32
2022-08-05T10:01:31.724Z,26.18
2022-08-05T10:02:25.901Z,25.97
2022-08-05T10:03:24.405Z,25.95
2022-08-05T10:04:28.523Z,25.67
2022-08-05T10:05:24.387Z,25.50
2022-08-05T10:06:24.399Z,25.57
2022-08-05T10:08:10.421Z,25.72
2022-08-05T10:08:37.261Z,25.77
2022-08-05T10:09:28.163Z,25.97
2022-08-05T10:10:28.209Z,26.06
2022-08-05T10:11:31.332Z,26.32
2022-08-05T10:12:33.544Z,26.69
2022-08-05T10:13:25.299Z,27.10
2022-08-05T10:14:26.779Z,27.47
2022-08-05T10:15:24.309Z,27.74
2022-08-05T10:16:24.275Z,27.79
2022-08-05T10:17:37.188Z,27.96
2022-08-05T10:18:25.245Z,28.03
2022-08-05T10:20:02.728Z,27.99
2022-08-05T10:20:25.246Z,27.81
2022-08-05T10:21:24.216Z,27.69
2022-08-05T10:22:29.811Z,27.50
2022-08-05T10:23:55.109Z,27.54
2022-08-05T10:24:25.178Z,27.57
2022-08-05T10:25:24.173Z,27.49
2022-08-05T10:26:31.700Z,27.28
2022-08-05T10:27:26.295Z,27.28
2022-08-05T10:28:29.130Z,27.22
2022-08-05T10:30:40.952Z,27.21
2022-08-05T10:32:46.714Z,27.25
2022-08-05T10:32:52.564Z,27.27
2022-08-05T10:32:54.286Z,27.19
2022-08-05T10:33:25.087Z,27.39
2022-08-05T10:34:25.623Z,27.59
2022-08-05T10:35:33.715Z,27.46
2022-08-05T10:36:25.864Z,27.50
2022-08-05T10:37:37.127Z,27.57
2022-08-05T10:38:25.031Z,27.77
2022-08-05T10:39:58.604Z,27.78
2022-08-05T10:40:28.149Z,27.97
2022-08-05T10:41:24.005Z,28.17
2022-08-05T10:42:33.498Z,28.34
2022-08-05T10:43:35.605Z,28.52
2022-08-05T10:44:24.970Z,28.61
2022-08-05T10:45:39.840Z,28.34
2022-08-05T10:46:24.948Z,28.21
2022-08-05T10:47:26.092Z,28.00
2022-08-05T10:48:31.141Z,27.90
2022-08-05T10:49:27.607Z,27.84
2022-08-05T10:50:36.625Z,28.00
2022-08-05T10:51:29.128Z,28.33
2022-08-05T10:52:24.065Z,28.76
2022-08-05T10:53:23.898Z,29.00
2022-08-05T10:54:29.979Z,29.06
2022-08-05T10:55:24.856Z,28.95
2022-08-05T10:56:25.877Z,28.74
2022-08-05T10:57:23.837Z,28.62
2022-08-05T10:58:23.846Z,28.48
2022-08-05T11:00:03.644Z,28.41
2022-08-05T11:00:24.801Z,28.24
2022-08-05T11:01:28.227Z,28.21
2022-08-05T11:02:37.876Z,28.02
2022-08-05T11:03:27.084Z,27.85
2022-08-05T11:04:26.117Z,27.55
2022-08-05T11:05:27.488Z,27.66
2022-08-05T11:06:30.753Z,27.96
2022-08-05T11:07:33.097Z,28.04
2022-08-05T11:08:37.207Z,28.37
2022-08-05T11:09:39.066Z,28.71
2022-08-05T11:10:27.546Z,29.00
2022-08-05T11:11:23.710Z,29.23
2022-08-05T11:12:25.060Z,29.31
2022-08-05T11:13:23.671Z,29.28
2022-08-05T11:14:37.292Z,29.05
2022-08-05T11:15:58.944Z,28.74
2022-08-05T11:16:47.415Z,28.59
2022-08-05T11:17:57.778Z,28.34
2022-08-05T11:18:24.632Z,28.06
2022-08-05T11:20:16.840Z,27.93
2022-08-05T11:20:24.586Z,27.82
2022-08-05T11:21:23.602Z,27.69
2022-08-05T11:22:23.569Z,27.50
2022-08-05T11:23:23.557Z,27.34
2022-08-05T11:24:30.206Z,27.34
2022-08-05T11:26:05.212Z,27.17
2022-08-05T11:26:31.861Z,27.19
2022-08-05T11:27:24.669Z,27.04
2022-08-05T11:28:23.504Z,26.91
2022-08-05T11:29:23.500Z,26.92
2022-08-05T11:30:23.484Z,26.81
2022-08-05T11:31:58.537Z,26.84
2022-08-05T11:32:24.458Z,26.80
2022-08-05T11:33:23.457Z,26.84
2022-08-05T11:34:26.270Z,26.72
2022-08-05T11:35:24.433Z,26.77
2022-08-05T11:36:34.706Z,26.48
2022-08-05T11:38:30.136Z,26.21
2022-08-05T11:38:31.029Z,26.39
2022-08-05T11:39:24.434Z,25.97
2022-08-05T11:40:23.403Z,25.88
2022-08-05T11:41:56.459Z,25.58
2022-08-05T11:42:27.935Z,25.35
2022-08-05T11:44:04.682Z,25.24
2022-08-05T11:44:52.966Z,25.02
2022-08-05T11:46:15.633Z,24.93
2022-08-05T11:46:32.260Z,24.64
2022-08-05T11:47:49.907Z,24.12
2022-08-05T11:48:24.288Z,23.17
2022-08-05T11:49:23.284Z,21.94
2022-08-05T11:50:23.289Z,21.25
2022-08-05T11:51:44.538Z,20.95
2022-08-05T11:52:24.250Z,20.98
2022-08-05T11:53:24.244Z,21.01
2022-08-05T11:54:23.222Z,20.95
2022-08-05T11:55:24.233Z,20.94
2022-08-05T11:56:40.689Z,21.03
2022-08-05T11:57:27.077Z,20.94
2022-08-05T11:58:23.179Z,20.87
2022-08-05T11:59:23.191Z,20.89
2022-08-05T12:00:23.156Z,20.88
2022-08-05T12:01:23.147Z,20.82
2022-08-05T12:02:30.319Z,20.72
2022-08-05T12:03:31.613Z,20.57
2022-08-05T12:04:24.112Z,20.62
2022-08-05T12:05:27.248Z,20.59
2022-08-05T12:06:24.092Z,20.58
2022-08-05T12:07:23.332Z,20.58
2022-08-05T12:08:24.096Z,20.52
2022-08-05T12:09:23.059Z,20.55
2022-08-05T12:10:24.866Z,20.66
2022-08-05T12:11:24.038Z,20.59
2022-08-05T12:12:23.027Z,20.58
2022-08-05T12:13:47.739Z,20.55
2022-08-05T12:14:24.223Z,20.55
2022-08-05T12:15:33.241Z,20.31
2022-08-05T12:16:27.158Z,20.16
2022-08-05T12:18:04.216Z,20.02
2022-08-05T12:18:24.354Z,19.96
2022-08-05T12:20:26.247Z,19.83
2022-08-05T12:20:33.224Z,19.73
2022-08-05T12:21:24.127Z,19.65
2022-08-05T12:22:22.916Z,19.50
2022-08-05T12:23:22.923Z,19.37
2022-08-05T12:24:22.899Z,19.31
2022-08-05T12:25:25.694Z,19.22
2022-08-05T12:26:24.049Z,19.14
2022-08-05T12:27:32.915Z,19.06
2022-08-05T12:28:23.850Z,18.94
2022-08-05T12:29:23.839Z,18.81
2022-08-05T12:30:22.850Z,18.78
2022-08-05T12:31:33.518Z,18.78
2022-08-05T12:32:23.804Z,18.69
2022-08-05T12:33:27.959Z,18.72
2022-08-05T12:34:25.773Z,18.63
2022-08-05T12:35:22.772Z,18.76
2022-08-05T12:36:23.827Z,18.76
2022-08-05T12:37:22.785Z,18.67
2022-08-05T12:38:30.087Z,18.63
2022-08-05T12:39:34.355Z,18.66
2022-08-05T12:40:26.856Z,18.60
2022-08-05T12:41:23.994Z,18.51
2022-08-05T12:42:25.436Z,18.58
2022-08-05T12:43:22.680Z,18.60
2022-08-05T12:44:33.098Z,18.66
2022-08-05T12:45:23.661Z,18.65
2022-08-05T12:46:26.668Z,18.63
2022-08-05T12:47:23.902Z,18.57
2022-08-05T12:48:32.750Z,18.62
2022-08-05T12:49:25.460Z,18.51
2022-08-05T12:50:22.629Z,18.51
2022-08-05T12:52:14.493Z,18.41
2022-08-05T12:52:26.983Z,18.35
2022-08-05T12:53:23.592Z,18.32